createdAt,value
2023-07-27T00:00:15.626Z,66.09
2023-07-27T00:00:47.586Z,66.29
2023-07-27T00:01:19.625Z,66.37
2023-07-27T00:01:51.542Z,65.92
2023-07-27T00:02:27.040Z,66.04
2023-07-27T00:02:59.141Z,66.01
2023-07-27T00:03:31.099Z,66.02
2023-07-27T00:04:03.020Z,65.98
2023-07-27T00:04:35.310Z,66.11
2023-07-27T00:05:07.585Z,66.26
2023-07-27T00:05:39.555Z,66.26
2023-07-27T00:06:11.483Z,66.16
2023-07-27T00:06:43.386Z,66.14
2023-07-27T00:07:15.306Z,66.16
2023-07-27T00:07:47.210Z,66.00
2023-07-27T00:08:19.158Z,66.13
2023-07-27T00:08:51.065Z,66.14
2023-07-27T00:09:23.050Z,66.07
2023-07-27T00:09:55.118Z,66.06
2023-07-27T00:10:29.193Z,66.25
2023-07-27T00:11:01.100Z,66.46
2023-07-27T00:11:33.000Z,66.55
2023-07-27T00:12:05.026Z,66.73
2023-07-27T00:12:36.957Z,66.61
2023-07-27T00:13:08.881Z,66.74
2023-07-27T00:13:40.770Z,66.55
2023-07-27T00:14:12.732Z,66.49
2023-07-27T00:14:44.695Z,66.70
2023-07-27T00:15:16.628Z,66.67
2023-07-27T00:15:48.641Z,66.94
2023-07-27T00:16:20.560Z,66.99
2023-07-27T00:16:52.464Z,67.00
2023-07-27T00:17:24.373Z,67.06
2023-07-27T00:17:56.391Z,67.17
2023-07-27T00:18:28.345Z,66.96
2023-07-27T00:19:00.446Z,67.05
2023-07-27T00:19:32.639Z,66.82
2023-07-27T00:20:05.458Z,66.87
2023-07-27T00:20:37.432Z,66.92
2023-07-27T00:21:09.291Z,67.26
2023-07-27T00:21:41.210Z,67.06
2023-07-27T00:22:13.227Z,67.24
2023-07-27T00:22:45.315Z,67.16
2023-07-27T00:23:17.226Z,67.33
2023-07-27T00:23:49.306Z,67.34
2023-07-27T00:24:21.248Z,67.16
2023-07-27T00:24:53.196Z,67.06
2023-07-27T00:25:25.167Z,67.00
2023-07-27T00:25:57.251Z,67.08
2023-07-27T00:26:29.145Z,66.90
2023-07-27T00:27:01.037Z,66.89
2023-07-27T00:27:33.108Z,66.92
2023-07-27T00:28:05.182Z,66.79
2023-07-27T00:28:37.080Z,66.90
2023-07-27T00:29:09.845Z,67.19
2023-07-27T00:29:41.689Z,67.23
2023-07-27T00:30:14.392Z,67.12
2023-07-27T00:30:46.342Z,67.23
2023-07-27T00:31:18.336Z,67.00
2023-07-27T00:31:51.649Z,67.16
2023-07-27T00:32:23.833Z,66.79
2023-07-27T00:32:55.795Z,66.49
2023-07-27T00:33:27.753Z,66.40
2023-07-27T00:33:59.637Z,66.55
2023-07-27T00:34:31.530Z,66.29
2023-07-27T00:35:03.632Z,66.45
2023-07-27T00:35:35.494Z,66.17
2023-07-27T00:36:07.363Z,66.43
2023-07-27T00:36:39.252Z,66.18
2023-07-27T00:37:11.158Z,66.25
2023-07-27T00:37:43.122Z,66.29
2023-07-27T00:38:15.010Z,66.27
2023-07-27T00:38:46.942Z,66.10
2023-07-27T00:39:18.843Z,66.29
2023-07-27T00:39:50.895Z,66.20
2023-07-27T00:40:22.779Z,65.95
2023-07-27T00:40:54.920Z,66.25
2023-07-27T00:41:26.801Z,65.98
2023-07-27T00:41:58.730Z,65.98
2023-07-27T00:42:30.637Z,65.96
2023-07-27T00:43:02.575Z,65.95
2023-07-27T00:43:34.587Z,66.07
2023-07-27T00:44:06.548Z,65.90
2023-07-27T00:44:38.428Z,65.93
2023-07-27T00:45:10.706Z,66.02
2023-07-27T00:45:42.721Z,65.93
2023-07-27T00:46:15.495Z,66.07
2023-07-27T00:46:47.585Z,65.88
2023-07-27T00:47:19.810Z,66.13
2023-07-27T00:47:51.793Z,65.78
2023-07-27T00:48:24.590Z,65.97
2023-07-27T00:48:56.498Z,65.99
2023-07-27T00:49:29.123Z,65.89
2023-07-27T00:50:01.182Z,66.03
2023-07-27T00:50:36.904Z,65.77
2023-07-27T00:51:09.872Z,66.17
2023-07-27T00:51:45.230Z,66.02
2023-07-27T00:52:18.011Z,66.01
2023-07-27T00:52:49.936Z,66.20
2023-07-27T00:53:22.132Z,66.08
2023-07-27T00:53:54.033Z,65.77
2023-07-27T00:54:26.823Z,65.63
2023-07-27T00:55:00.144Z,65.49
2023-07-27T00:55:33.287Z,65.45
2023-07-27T00:56:05.991Z,65.71
2023-07-27T00:56:39.200Z,65.66
2023-07-27T00:57:12.129Z,65.42
2023-07-27T00:57:44.065Z,65.44
2023-07-27T00:58:16.163Z,65.59
2023-07-27T00:58:48.818Z,65.27
2023-07-27T00:59:20.720Z,65.19
2023-07-27T00:59:53.187Z,65.17
2023-07-27T01:00:25.942Z,65.11
2023-07-27T01:01:00.829Z,65.37
2023-07-27T01:01:33.455Z,65.17
2023-07-27T01:02:05.499Z,65.42
2023-07-27T01:02:38.603Z,65.35
2023-07-27T01:03:10.894Z,65.51
2023-07-27T01:03:43.083Z,65.51
2023-07-27T01:04:15.692Z,65.30
2023-07-27T01:04:48.318Z,65.51
2023-07-27T01:05:20.800Z,65.21
2023-07-27T01:05:52.940Z,65.23
2023-07-27T01:06:25.904Z,65.17
2023-07-27T01:06:57.802Z,65.21
2023-07-27T01:07:29.750Z,65.31
2023-07-27T01:08:01.607Z,65.43
2023-07-27T01:08:33.845Z,65.25
2023-07-27T01:09:05.870Z,65.36
2023-07-27T01:09:37.890Z,65.32
2023-07-27T01:10:11.577Z,65.49
2023-07-27T01:10:56.422Z,65.67
2023-07-27T01:11:44.096Z,65.31
2023-07-27T01:12:27.077Z,65.74
2023-07-27T01:13:10.007Z,65.92
2023-07-27T01:13:51.977Z,65.54
2023-07-27T01:14:44.555Z,65.71
2023-07-27T01:15:22.955Z,65.76
2023-07-27T01:16:02.817Z,65.68
2023-07-27T01:16:58.916Z,65.62
2023-07-27T01:17:40.843Z,65.81
2023-07-27T01:18:23.232Z,65.64
2023-07-27T01:19:16.025Z,65.57
2023-07-27T01:19:47.931Z,65.85
2023-07-27T01:20:26.281Z,65.84
2023-07-27T01:21:15.941Z,65.96
2023-07-27T01:21:57.943Z,65.95
2023-07-27T01:22:32.761Z,65.83
2023-07-27T01:23:16.724Z,65.85
2023-07-27T01:24:10.542Z,65.60
2023-07-27T01:24:57.259Z,66.10
2023-07-27T01:25:40.899Z,66.19
2023-07-27T01:26:47.533Z,66.05
2023-07-27T01:27:32.234Z,66.42
2023-07-27T01:28:25.730Z,66.29
2023-07-27T01:29:35.373Z,66.39
2023-07-27T01:30:28.176Z,66.71
2023-07-27T01:31:09.706Z,66.69
2023-07-27T01:31:45.162Z,66.21
2023-07-27T01:32:22.249Z,66.88
2023-07-27T01:33:04.805Z,67.11
2023-07-27T01:33:43.205Z,66.45
2023-07-27T01:34:24.264Z,66.47
2023-07-27T01:35:01.030Z,66.74
2023-07-27T01:35:41.275Z,66.84
2023-07-27T01:36:18.810Z,66.26
2023-07-27T01:36:58.279Z,66.35
2023-07-27T01:37:31.894Z,66.48
2023-07-27T01:38:06.017Z,66.69
2023-07-27T01:38:42.282Z,66.15
2023-07-27T01:39:18.528Z,66.56
2023-07-27T01:39:53.494Z,66.43
2023-07-27T01:40:26.032Z,66.57
2023-07-27T01:40:59.963Z,66.25
2023-07-27T01:41:34.709Z,66.19
2023-07-27T01:42:10.202Z,66.10
2023-07-27T01:42:44.306Z,66.34
2023-07-27T01:43:18.078Z,65.85
2023-07-27T01:43:50.604Z,65.61
2023-07-27T01:44:28.025Z,65.91
2023-07-27T01:45:00.569Z,66.04
2023-07-27T01:45:32.533Z,66.02
2023-07-27T01:46:07.291Z,65.96
2023-07-27T01:46:41.474Z,65.46
2023-07-27T01:47:15.219Z,65.84
2023-07-27T01:47:48.183Z,65.70
2023-07-27T01:48:21.074Z,65.89
2023-07-27T01:48:56.033Z,65.80
2023-07-27T01:49:30.746Z,66.01
2023-07-27T01:50:03.694Z,65.79
2023-07-27T01:50:36.909Z,66.25
2023-07-27T01:51:10.733Z,66.02
2023-07-27T01:51:44.423Z,66.15
2023-07-27T01:52:17.879Z,66.13
2023-07-27T01:52:51.758Z,65.86
2023-07-27T01:53:26.973Z,66.14
2023-07-27T01:53:59.636Z,66.24
2023-07-27T01:54:33.610Z,66.04
2023-07-27T01:55:07.940Z,65.83
2023-07-27T01:55:41.229Z,65.91
2023-07-27T01:56:14.466Z,65.98
2023-07-27T01:56:46.942Z,66.13
2023-07-27T01:57:19.751Z,66.00
2023-07-27T01:57:52.603Z,65.92
2023-07-27T01:58:25.453Z,65.95
2023-07-27T01:58:59.634Z,65.99
2023-07-27T01:59:33.923Z,65.54
2023-07-27T02:00:07.097Z,65.95
2023-07-27T02:00:40.478Z,65.83
2023-07-27T02:01:12.598Z,65.86
2023-07-27T02:01:45.476Z,66.06
2023-07-27T02:02:18.443Z,66.05
2023-07-27T02:02:51.142Z,65.76
2023-07-27T02:03:23.273Z,65.57
2023-07-27T02:03:55.337Z,66.01
2023-07-27T02:04:27.522Z,65.67
2023-07-27T02:04:59.605Z,65.88
2023-07-27T02:05:31.632Z,65.72
2023-07-27T02:06:03.676Z,65.91
2023-07-27T02:06:35.935Z,65.60
2023-07-27T02:07:08.077Z,65.59
2023-07-27T02:07:40.006Z,65.46
2023-07-27T02:08:11.918Z,65.72
2023-07-27T02:08:43.778Z,65.51
2023-07-27T02:09:15.636Z,65.62
2023-07-27T02:09:47.536Z,65.71
2023-07-27T02:10:22.718Z,65.53
2023-07-27T02:11:03.499Z,65.33
2023-07-27T02:11:35.607Z,65.39
2023-07-27T02:12:16.707Z,65.58
2023-07-27T02:13:06.705Z,65.24
2023-07-27T02:14:05.586Z,65.54
2023-07-27T02:14:47.995Z,65.24
2023-07-27T02:15:26.379Z,65.41
2023-07-27T02:16:11.639Z,65.39
2023-07-27T02:16:57.840Z,65.54
2023-07-27T02:17:41.158Z,65.59
2023-07-27T02:18:25.590Z,65.92
2023-07-27T02:19:01.584Z,65.51
2023-07-27T02:19:39.851Z,65.53
2023-07-27T02:20:17.762Z,65.58
2023-07-27T02:20:51.968Z,65.57
2023-07-27T02:21:26.942Z,65.18
2023-07-27T02:22:01.345Z,65.46
2023-07-27T02:22:34.487Z,65.30
2023-07-27T02:23:07.609Z,65.38
2023-07-27T02:23:41.144Z,65.54
2023-07-27T02:24:14.217Z,65.64
2023-07-27T02:24:46.254Z,65.36
2023-07-27T02:25:18.349Z,65.62
2023-07-27T02:25:50.397Z,65.30
2023-07-27T02:26:23.019Z,65.39
2023-07-27T02:26:56.371Z,65.39
2023-07-27T02:27:28.425Z,65.49
2023-07-27T02:28:00.483Z,65.49
2023-07-27T02:28:34.586Z,65.50
2023-07-27T02:29:06.476Z,65.64
2023-07-27T02:29:38.408Z,65.64
2023-07-27T02:30:10.541Z,65.26
2023-07-27T02:30:42.444Z,65.46
2023-07-27T02:31:14.359Z,65.55
2023-07-27T02:31:46.301Z,65.51
2023-07-27T02:32:18.296Z,65.53
2023-07-27T02:32:50.230Z,65.56
2023-07-27T02:33:22.192Z,65.59
2023-07-27T02:33:54.054Z,65.67
2023-07-27T02:34:25.955Z,65.68
2023-07-27T02:34:58.114Z,65.71
2023-07-27T02:35:30.173Z,65.85
2023-07-27T02:36:02.138Z,65.42
2023-07-27T02:36:34.276Z,65.19
2023-07-27T02:37:06.386Z,65.73
2023-07-27T02:37:38.307Z,65.78
2023-07-27T02:38:10.308Z,66.00
2023-07-27T02:38:42.298Z,66.05
2023-07-27T02:39:14.224Z,66.05
2023-07-27T02:39:46.145Z,65.94
2023-07-27T02:40:18.123Z,66.12
2023-07-27T02:40:51.768Z,65.96
2023-07-27T02:41:25.742Z,66.19
2023-07-27T02:41:57.826Z,65.79
2023-07-27T02:42:29.848Z,65.61
2023-07-27T02:43:03.266Z,65.80
2023-07-27T02:43:35.137Z,66.20
2023-07-27T02:44:07.034Z,65.82
2023-07-27T02:44:39.015Z,66.20
2023-07-27T02:45:11.257Z,65.93
2023-07-27T02:45:43.221Z,65.99
2023-07-27T02:46:15.154Z,65.67
2023-07-27T02:46:47.074Z,66.16
2023-07-27T02:47:19.104Z,65.53
2023-07-27T02:47:51.007Z,65.88
2023-07-27T02:48:22.962Z,66.05
2023-07-27T02:48:56.748Z,66.12
2023-07-27T02:49:28.608Z,66.35
2023-07-27T02:50:00.456Z,66.16
2023-07-27T02:50:32.300Z,66.18
2023-07-27T02:51:04.365Z,66.50
2023-07-27T02:51:36.659Z,66.14
2023-07-27T02:52:08.856Z,66.80
2023-07-27T02:52:44.849Z,66.31
2023-07-27T02:53:16.744Z,66.59
2023-07-27T02:53:48.600Z,66.79
2023-07-27T02:54:20.498Z,66.79
2023-07-27T02:54:52.385Z,67.40
2023-07-27T02:55:24.257Z,66.77
2023-07-27T02:56:00.870Z,66.63
2023-07-27T02:56:32.984Z,66.93
2023-07-27T02:57:05.618Z,66.85
2023-07-27T02:57:37.591Z,66.43
2023-07-27T02:58:09.658Z,66.43
2023-07-27T02:58:41.542Z,66.27
2023-07-27T02:59:13.533Z,66.69
2023-07-27T02:59:45.420Z,66.35
2023-07-27T03:00:17.343Z,66.44
2023-07-27T03:00:56.859Z,66.93
2023-07-27T03:01:28.919Z,66.21
2023-07-27T03:02:00.846Z,66.30
2023-07-27T03:02:32.925Z,66.49
2023-07-27T03:03:04.988Z,66.49
2023-07-27T03:03:36.980Z,66.38
2023-07-27T03:04:08.903Z,66.40
2023-07-27T03:04:40.825Z,66.66
2023-07-27T03:05:12.739Z,66.72
2023-07-27T03:05:44.682Z,66.63
2023-07-27T03:06:16.636Z,66.34
2023-07-27T03:06:48.639Z,66.30
2023-07-27T03:07:20.632Z,66.49
2023-07-27T03:07:52.484Z,66.94
2023-07-27T03:08:24.847Z,66.88
2023-07-27T03:08:56.987Z,67.00
2023-07-27T03:09:28.943Z,67.06
2023-07-27T03:10:00.832Z,67.19
2023-07-27T03:10:36.079Z,67.14
2023-07-27T03:11:07.954Z,67.06
2023-07-27T03:11:39.909Z,67.38
2023-07-27T03:12:13.318Z,67.32
2023-07-27T03:12:45.485Z,66.96
2023-07-27T03:13:17.356Z,66.75
2023-07-27T03:13:49.314Z,67.17
2023-07-27T03:14:21.376Z,66.75
2023-07-27T03:14:53.321Z,67.25
2023-07-27T03:15:25.224Z,67.40
2023-07-27T03:15:57.110Z,68.05
2023-07-27T03:16:29.167Z,67.85
2023-07-27T03:17:01.146Z,67.86
2023-07-27T03:17:35.839Z,67.35
2023-07-27T03:18:08.665Z,67.46
2023-07-27T03:18:40.570Z,67.13
2023-07-27T03:19:12.483Z,67.51
2023-07-27T03:19:44.472Z,67.19
2023-07-27T03:20:16.386Z,67.11
2023-07-27T03:20:48.649Z,67.29
2023-07-27T03:21:20.757Z,67.24
2023-07-27T03:21:53.571Z,67.24
2023-07-27T03:22:25.516Z,67.04
2023-07-27T03:22:57.409Z,67.53
2023-07-27T03:23:29.308Z,67.34
2023-07-27T03:24:01.189Z,67.44
2023-07-27T03:24:34.284Z,67.33
2023-07-27T03:25:06.461Z,67.58
2023-07-27T03:25:39.114Z,67.80
2023-07-27T03:26:14.150Z,67.53
2023-07-27T03:26:46.387Z,67.87
2023-07-27T03:27:18.512Z,67.92
2023-07-27T03:27:50.372Z,67.63
2023-07-27T03:28:22.278Z,67.46
2023-07-27T03:28:54.264Z,67.10
2023-07-27T03:29:26.128Z,67.33
2023-07-27T03:29:57.970Z,67.19
2023-07-27T03:30:30.457Z,67.17
2023-07-27T03:31:02.390Z,67.16
2023-07-27T03:31:34.311Z,66.39
2023-07-27T03:32:06.587Z,66.94
2023-07-27T03:32:39.552Z,67.75
2023-07-27T03:33:11.489Z,67.82
2023-07-27T03:33:43.452Z,67.70
2023-07-27T03:34:15.442Z,68.10
2023-07-27T03:34:47.414Z,67.71
2023-07-27T03:35:19.337Z,67.90
2023-07-27T03:35:51.190Z,67.65
2023-07-27T03:36:23.174Z,67.90
2023-07-27T03:36:55.077Z,67.88
2023-07-27T03:37:27.009Z,67.80
2023-07-27T03:37:58.870Z,67.66
2023-07-27T03:38:31.714Z,67.95
2023-07-27T03:39:03.730Z,68.06
2023-07-27T03:39:35.669Z,67.96
2023-07-27T03:40:08.171Z,67.74
2023-07-27T03:40:41.013Z,67.92
2023-07-27T03:41:14.554Z,68.19
2023-07-27T03:41:46.431Z,68.15
2023-07-27T03:42:18.330Z,68.21
2023-07-27T03:42:50.251Z,68.16
2023-07-27T03:43:22.132Z,68.75
2023-07-27T03:43:54.233Z,68.72
2023-07-27T03:44:26.091Z,68.59
2023-07-27T03:44:57.968Z,68.06
2023-07-27T03:45:29.897Z,68.29
2023-07-27T03:46:01.858Z,68.29
2023-07-27T03:46:34.052Z,68.03
2023-07-27T03:47:06.253Z,68.29
2023-07-27T03:47:38.166Z,67.87
2023-07-27T03:48:10.124Z,67.71
2023-07-27T03:48:42.114Z,67.52
2023-07-27T03:49:13.981Z,67.76
2023-07-27T03:49:45.841Z,68.05
2023-07-27T03:50:17.942Z,67.59
2023-07-27T03:50:49.884Z,67.64
2023-07-27T03:51:21.869Z,67.29
2023-07-27T03:51:53.787Z,67.53
2023-07-27T03:52:25.816Z,67.88
2023-07-27T03:52:58.078Z,67.75
2023-07-27T03:53:31.067Z,67.70
2023-07-27T03:54:02.998Z,67.57
2023-07-27T03:54:34.927Z,67.69
2023-07-27T03:55:07.232Z,67.73
2023-07-27T03:55:39.153Z,67.83
2023-07-27T03:56:11.109Z,67.32
2023-07-27T03:56:42.989Z,67.77
2023-07-27T03:57:14.887Z,67.41
2023-07-27T03:57:48.645Z,67.59
2023-07-27T03:58:20.603Z,67.63
2023-07-27T03:58:52.530Z,68.14
2023-07-27T03:59:24.453Z,67.85
2023-07-27T03:59:58.066Z,67.88
2023-07-27T04:00:30.128Z,67.46
2023-07-27T04:01:02.108Z,67.27
2023-07-27T04:01:34.564Z,67.51
2023-07-27T04:02:06.522Z,67.42
2023-07-27T04:02:38.612Z,67.54
2023-07-27T04:03:10.544Z,67.40
2023-07-27T04:03:42.464Z,67.36
2023-07-27T04:04:14.677Z,67.41
2023-07-27T04:04:47.349Z,67.14
2023-07-27T04:05:19.260Z,67.30
2023-07-27T04:05:52.964Z,66.97
2023-07-27T04:06:24.841Z,67.42
2023-07-27T04:06:56.714Z,67.13
2023-07-27T04:07:28.644Z,67.02
2023-07-27T04:08:00.624Z,67.48
2023-07-27T04:08:32.476Z,67.37
2023-07-27T04:09:04.351Z,66.76
2023-07-27T04:09:36.243Z,66.62
2023-07-27T04:10:08.454Z,67.02
2023-07-27T04:10:41.660Z,67.18
2023-07-27T04:11:13.585Z,66.89
2023-07-27T04:11:45.585Z,67.17
2023-07-27T04:12:17.504Z,67.35
2023-07-27T04:12:49.418Z,66.97
2023-07-27T04:13:21.352Z,66.83
2023-07-27T04:13:53.244Z,66.79
2023-07-27T04:14:25.169Z,67.22
2023-07-27T04:14:57.157Z,66.82
2023-07-27T04:15:29.035Z,67.50
2023-07-27T04:16:00.924Z,66.79
2023-07-27T04:16:33.174Z,67.06
2023-07-27T04:17:05.901Z,67.53
2023-07-27T04:17:38.454Z,67.06
2023-07-27T04:18:10.646Z,67.00
2023-07-27T04:18:42.536Z,66.85
2023-07-27T04:19:14.488Z,67.26
2023-07-27T04:19:46.402Z,66.84
2023-07-27T04:20:18.495Z,66.78
2023-07-27T04:20:50.374Z,66.88
2023-07-27T04:21:22.292Z,66.84
2023-07-27T04:21:54.229Z,66.78
2023-07-27T04:22:26.239Z,66.86
2023-07-27T04:22:58.204Z,67.11
2023-07-27T04:23:30.140Z,67.04
2023-07-27T04:24:02.647Z,67.04
2023-07-27T04:24:34.600Z,67.00
2023-07-27T04:25:07.267Z,66.84
2023-07-27T04:25:39.218Z,67.19
2023-07-27T04:26:11.207Z,66.82
2023-07-27T04:26:43.179Z,67.28
2023-07-27T04:27:15.051Z,67.09
2023-07-27T04:27:46.956Z,67.48
2023-07-27T04:28:19.735Z,67.39
2023-07-27T04:28:51.619Z,68.00
2023-07-27T04:29:23.491Z,68.07
2023-07-27T04:29:55.751Z,67.77
2023-07-27T04:30:27.632Z,67.68
2023-07-27T04:30:59.666Z,67.98
2023-07-27T04:31:31.569Z,67.96
2023-07-27T04:32:04.038Z,68.25
2023-07-27T04:32:35.969Z,68.59
2023-07-27T04:33:07.934Z,68.57
2023-07-27T04:33:39.808Z,68.91
2023-07-27T04:34:11.690Z,68.49
2023-07-27T04:34:43.591Z,68.22
2023-07-27T04:35:15.653Z,68.69
2023-07-27T04:35:47.521Z,68.19
2023-07-27T04:36:19.416Z,68.25
2023-07-27T04:36:51.350Z,68.27
2023-07-27T04:37:23.318Z,68.24
2023-07-27T04:37:55.206Z,68.36
2023-07-27T04:38:27.091Z,68.68
2023-07-27T04:38:58.989Z,68.78
2023-07-27T04:39:30.873Z,68.79
2023-07-27T04:40:02.889Z,68.64
2023-07-27T04:40:34.795Z,68.73
2023-07-27T04:41:06.703Z,68.37
2023-07-27T04:41:38.807Z,68.73
2023-07-27T04:42:10.695Z,68.66
2023-07-27T04:42:42.842Z,68.57
2023-07-27T04:43:14.755Z,68.93
2023-07-27T04:43:46.695Z,69.16
2023-07-27T04:44:18.704Z,68.70
2023-07-27T04:44:50.597Z,68.53
2023-07-27T04:45:23.307Z,68.55
2023-07-27T04:45:55.231Z,68.63
2023-07-27T04:46:27.188Z,68.83
2023-07-27T04:46:59.505Z,68.18
2023-07-27T04:47:31.787Z,68.18
2023-07-27T04:48:04.900Z,67.88
2023-07-27T04:48:36.836Z,67.77
2023-07-27T04:49:08.889Z,67.41
2023-07-27T04:49:40.895Z,67.64
2023-07-27T04:50:13.047Z,68.42
2023-07-27T04:50:44.983Z,67.84
2023-07-27T04:51:16.942Z,67.56
2023-07-27T04:51:48.821Z,67.45
2023-07-27T04:52:20.734Z,67.72
2023-07-27T04:52:52.637Z,67.55
2023-07-27T04:53:24.532Z,67.63
2023-07-27T04:53:56.478Z,67.73
2023-07-27T04:54:28.386Z,67.22
2023-07-27T04:55:00.302Z,67.12
2023-07-27T04:55:32.156Z,67.39
2023-07-27T04:56:04.142Z,66.64
2023-07-27T04:56:36.265Z,66.41
2023-07-27T04:57:08.422Z,66.62
2023-07-27T04:57:40.320Z,66.56
2023-07-27T04:58:12.222Z,66.54
2023-07-27T04:58:44.482Z,66.01
2023-07-27T04:59:16.800Z,66.61
2023-07-27T04:59:48.742Z,66.23
2023-07-27T05:00:20.752Z,66.47
2023-07-27T05:00:54.990Z,66.50
2023-07-27T05:01:26.968Z,66.43
2023-07-27T05:01:59.106Z,65.51
2023-07-27T05:02:31.199Z,65.41
2023-07-27T05:03:03.210Z,65.66
2023-07-27T05:03:35.104Z,65.47
2023-07-27T05:04:07.074Z,65.52
2023-07-27T05:04:39.188Z,64.92
2023-07-27T05:05:11.949Z,65.08
2023-07-27T05:05:44.767Z,64.66
2023-07-27T05:06:16.660Z,64.88
2023-07-27T05:06:48.562Z,64.51
2023-07-27T05:07:22.108Z,64.54
2023-07-27T05:07:54.230Z,64.48
2023-07-27T05:08:26.179Z,64.07
2023-07-27T05:08:58.139Z,64.44
2023-07-27T05:09:30.981Z,64.32
2023-07-27T05:10:03.030Z,64.46
2023-07-27T05:10:34.904Z,64.25
2023-07-27T05:11:09.981Z,64.54
2023-07-27T05:11:41.939Z,64.17
2023-07-27T05:12:13.858Z,63.49
2023-07-27T05:12:45.755Z,63.45
2023-07-27T05:13:17.719Z,63.39
2023-07-27T05:13:51.646Z,63.38
2023-07-27T05:14:23.531Z,63.85
2023-07-27T05:14:55.724Z,63.34
2023-07-27T05:15:27.643Z,63.44
2023-07-27T05:15:59.887Z,63.70
2023-07-27T05:16:32.392Z,63.44
2023-07-27T05:17:04.629Z,64.03
2023-07-27T05:17:36.543Z,63.57
2023-07-27T05:18:08.725Z,63.01
2023-07-27T05:18:40.642Z,63.24
2023-07-27T05:19:12.598Z,63.13
2023-07-27T05:19:44.502Z,63.19
2023-07-27T05:20:16.489Z,63.64
2023-07-27T05:20:48.352Z,62.70
2023-07-27T05:21:20.633Z,63.16
2023-07-27T05:21:52.546Z,63.06
2023-07-27T05:22:24.580Z,62.55
2023-07-27T05:22:56.430Z,62.48
2023-07-27T05:23:28.873Z,62.93
2023-07-27T05:24:00.801Z,63.44
2023-07-27T05:24:32.834Z,63.17
2023-07-27T05:25:06.230Z,62.60
2023-07-27T05:25:38.182Z,62.15
2023-07-27T05:26:10.159Z,62.42
2023-07-27T05:26:43.211Z,62.71
2023-07-27T05:27:15.091Z,61.83
2023-07-27T05:27:47.067Z,61.89
2023-07-27T05:28:19.126Z,62.38
2023-07-27T05:28:51.008Z,62.71
2023-07-27T05:29:23.101Z,63.02
2023-07-27T05:29:55.033Z,62.67
2023-07-27T05:30:26.928Z,62.42
2023-07-27T05:30:58.811Z,62.29
2023-07-27T05:31:30.715Z,62.56
2023-07-27T05:32:02.604Z,62.68
2023-07-27T05:32:34.535Z,62.72
2023-07-27T05:33:06.748Z,62.35
2023-07-27T05:33:38.615Z,62.53
2023-07-27T05:34:10.558Z,63.43
2023-07-27T05:34:42.434Z,62.53
2023-07-27T05:35:14.377Z,62.55
2023-07-27T05:35:50.041Z,61.87
2023-07-27T05:36:21.982Z,62.01
2023-07-27T05:36:53.859Z,61.68
2023-07-27T05:37:25.764Z,62.35
2023-07-27T05:37:57.772Z,61.84
2023-07-27T05:38:29.700Z,62.20
2023-07-27T05:39:01.649Z,61.70
2023-07-27T05:39:33.656Z,61.83
2023-07-27T05:40:06.449Z,62.13
2023-07-27T05:40:38.637Z,62.35
2023-07-27T05:41:10.573Z,61.35
2023-07-27T05:41:42.568Z,61.26
2023-07-27T05:42:14.431Z,61.55
2023-07-27T05:42:46.375Z,61.82
2023-07-27T05:43:18.446Z,62.16
2023-07-27T05:43:50.706Z,61.69
2023-07-27T05:44:22.948Z,61.75
2023-07-27T05:44:54.839Z,61.42
2023-07-27T05:45:26.819Z,61.74
2023-07-27T05:45:58.783Z,61.81
2023-07-27T05:46:32.005Z,61.36
2023-07-27T05:47:05.066Z,62.34
2023-07-27T05:47:37.539Z,61.67
2023-07-27T05:48:09.646Z,61.93
2023-07-27T05:48:41.517Z,61.48
2023-07-27T05:49:13.826Z,61.68
2023-07-27T05:49:45.830Z,61.17
2023-07-27T05:50:18.535Z,61.60
2023-07-27T05:50:53.159Z,61.64
2023-07-27T05:51:25.132Z,60.81
2023-07-27T05:51:57.043Z,61.13
2023-07-27T05:52:29.351Z,61.00
2023-07-27T05:53:01.404Z,61.03
2023-07-27T05:53:33.333Z,61.13
2023-07-27T05:54:05.335Z,61.24
2023-07-27T05:54:37.263Z,61.37
2023-07-27T05:55:09.706Z,61.08
2023-07-27T05:55:41.592Z,60.91
2023-07-27T05:56:15.615Z,61.23
2023-07-27T05:56:47.755Z,60.73
2023-07-27T05:57:19.721Z,60.77
2023-07-27T05:57:51.618Z,61.27
2023-07-27T05:58:26.188Z,60.46
2023-07-27T05:58:58.458Z,60.81
2023-07-27T05:59:30.384Z,60.92
2023-07-27T06:00:06.916Z,60.69
2023-07-27T06:00:39.971Z,60.64
2023-07-27T06:01:11.927Z,60.58
2023-07-27T06:01:43.856Z,60.66
2023-07-27T06:02:15.853Z,60.37
2023-07-27T06:02:47.783Z,60.75
2023-07-27T06:03:20.328Z,60.85
2023-07-27T06:04:06.797Z,60.87
2023-07-27T06:04:40.615Z,60.57
2023-07-27T06:05:12.498Z,60.52
2023-07-27T06:05:45.282Z,60.48
2023-07-27T06:06:17.200Z,60.35
2023-07-27T06:06:49.348Z,60.25
2023-07-27T06:07:21.401Z,60.02
2023-07-27T06:07:53.772Z,60.38
2023-07-27T06:08:25.700Z,60.28
2023-07-27T06:08:57.671Z,59.90
2023-07-27T06:09:29.931Z,60.26
2023-07-27T06:10:02.001Z,60.06
2023-07-27T06:10:33.997Z,59.83
2023-07-27T06:11:09.553Z,59.67
2023-07-27T06:11:42.055Z,60.29
2023-07-27T06:12:14.026Z,60.01
2023-07-27T06:12:45.923Z,60.17
2023-07-27T06:13:17.870Z,59.73
2023-07-27T06:13:49.823Z,60.14
2023-07-27T06:14:21.773Z,59.44
2023-07-27T06:14:53.675Z,59.92
2023-07-27T06:15:25.626Z,59.69
2023-07-27T06:15:57.686Z,60.06
2023-07-27T06:16:29.658Z,59.90
2023-07-27T06:17:01.536Z,59.59
2023-07-27T06:17:33.717Z,59.97
2023-07-27T06:18:06.727Z,59.65
2023-07-27T06:18:39.228Z,59.75
2023-07-27T06:19:11.260Z,59.85
2023-07-27T06:19:43.227Z,59.40
2023-07-27T06:20:15.122Z,59.49
2023-07-27T06:20:47.026Z,59.65
2023-07-27T06:21:18.917Z,59.28
2023-07-27T06:21:50.810Z,59.54
2023-07-27T06:22:24.827Z,59.59
2023-07-27T06:22:57.143Z,59.36
2023-07-27T06:23:29.326Z,59.74
2023-07-27T06:24:01.573Z,59.55
2023-07-27T06:24:33.666Z,59.04
2023-07-27T06:25:05.933Z,58.88
2023-07-27T06:25:43.851Z,59.32
2023-07-27T06:26:15.801Z,59.01
2023-07-27T06:26:47.703Z,59.09
2023-07-27T06:27:19.625Z,58.58
2023-07-27T06:27:51.588Z,58.63
2023-07-27T06:28:23.572Z,58.80
2023-07-27T06:28:55.544Z,58.95
2023-07-27T06:29:27.649Z,58.85
2023-07-27T06:29:59.638Z,58.90
2023-07-27T06:30:31.544Z,58.73
2023-07-27T06:31:04.021Z,58.69
2023-07-27T06:31:36.061Z,58.90
2023-07-27T06:32:08.568Z,58.80
2023-07-27T06:32:40.690Z,59.10
2023-07-27T06:33:13.151Z,58.01
2023-07-27T06:33:45.683Z,58.26
2023-07-27T06:34:18.230Z,58.63
2023-07-27T06:34:50.210Z,58.71
2023-07-27T06:35:22.399Z,59.45
2023-07-27T06:35:54.252Z,58.69
2023-07-27T06:36:26.154Z,59.02
2023-07-27T06:36:58.034Z,59.25
2023-07-27T06:37:29.897Z,58.75
2023-07-27T06:38:01.758Z,58.83
2023-07-27T06:38:33.890Z,57.99
2023-07-27T06:39:06.431Z,57.57
2023-07-27T06:39:38.343Z,57.81
2023-07-27T06:40:10.370Z,58.26
2023-07-27T06:40:42.510Z,58.17
2023-07-27T06:41:14.482Z,57.65
2023-07-27T06:41:46.419Z,57.85
2023-07-27T06:42:18.290Z,56.88
2023-07-27T06:42:50.221Z,57.71
2023-07-27T06:43:22.201Z,57.01
2023-07-27T06:43:54.211Z,56.78
2023-07-27T06:44:26.255Z,57.18
2023-07-27T06:44:58.829Z,57.03
2023-07-27T06:45:30.763Z,56.87
2023-07-27T06:46:02.664Z,57.06
2023-07-27T06:46:35.364Z,56.64
2023-07-27T06:47:08.076Z,56.73
2023-07-27T06:47:40.406Z,56.56
2023-07-27T06:48:12.652Z,56.38
2023-07-27T06:48:44.616Z,57.05
2023-07-27T06:49:16.595Z,56.78
2023-07-27T06:49:48.524Z,57.40
2023-07-27T06:50:20.444Z,56.72
2023-07-27T06:50:53.045Z,56.26
2023-07-27T06:51:25.342Z,56.74
2023-07-27T06:51:57.227Z,56.24
2023-07-27T06:52:29.224Z,56.39
2023-07-27T06:53:01.118Z,56.33
2023-07-27T06:53:33.034Z,56.09
2023-07-27T06:54:05.152Z,56.92
2023-07-27T06:54:38.114Z,56.87
2023-07-27T06:55:10.168Z,56.47
2023-07-27T06:55:42.761Z,55.38
2023-07-27T06:56:14.611Z,56.31
2023-07-27T06:56:46.542Z,56.47
2023-07-27T06:57:18.517Z,56.00
2023-07-27T06:57:50.540Z,56.17
2023-07-27T06:58:22.436Z,55.52
2023-07-27T06:58:54.401Z,55.61
2023-07-27T06:59:27.964Z,56.02
2023-07-27T07:00:02.285Z,55.47
2023-07-27T07:00:34.256Z,55.69
2023-07-27T07:01:06.209Z,55.58
2023-07-27T07:01:38.185Z,55.23
2023-07-27T07:02:10.126Z,55.08
2023-07-27T07:02:42.226Z,55.37
2023-07-27T07:03:14.336Z,55.54
2023-07-27T07:03:46.299Z,55.16
2023-07-27T07:04:18.195Z,55.00
2023-07-27T07:04:50.257Z,55.48
2023-07-27T07:05:22.142Z,54.83
2023-07-27T07:05:57.224Z,54.98
2023-07-27T07:06:29.224Z,54.77